BAX weather

Barnaul Airport
Barnaul, Altai Krai, Russia

Public forecast

Using degrees Celsius for public forecast. Weather courtesy of forecast.io.

METAR (pilot weather report)

Retrieved 2019/04/26 01:30 UTC (24 minutes ago):

UNBB 260130Z 23005MPS 9999 SCT040 06/02 Q1010 R24/190058 NOSIG RMK QFE735

TAF (pilot weather forecast)

Retrieved 2019/04/26 03:00 UTC (0 seconds ago):

TAF UNBB 260200Z 2603/2703 24010G17MPS 9999 BKN020CB TEMPO 2603/2615 3100 -SHRA SCT004 BKN011CB BECMG 2615/2617 34003G08MPS TEMPO 2621/2703 1000 SHRA BR SCT002 BKN011CB